Time;durP1;ratioP1;P1;durP2;ratioP2;P2;SDS_P1;SDS_P2;PMS_P1;PMS_P2;Temp;Humidity;BMP_temperature;BMP_pressure;BME280_temperature;BME280_humidity;BME280_pressure;Samples;Min_cycle;Max_cycle;Signal;HPM_P1;HPM_P2
2023/01/20 00:01:25;;;;;;;17.58;7.78;;;;;;;0.49;100.00;97909.09;4532778;31;20215;-71
2023/01/20 00:03:53;;;;;;;14.50;7.65;;;;;;;0.63;100.00;97915.97;4532867;31;20204;-71
2023/01/20 00:06:21;;;;;;;19.73;7.95;;;;;;;0.59;100.00;97902.47;4532899;31;20107;-71
2023/01/20 00:08:52;;;;;;;18.52;8.80;;;;;;;0.63;100.00;97896.16;4532757;31;20087;-71
2023/01/20 00:11:20;;;;;;;19.85;8.55;;;;;;;0.59;100.00;97887.00;4516884;31;20451;-71
2023/01/20 00:13:47;;;;;;;16.95;7.50;;;;;;;0.51;100.00;97889.22;4515714;31;20138;-71
2023/01/20 00:16:14;;;;;;;16.05;7.30;;;;;;;0.57;100.00;97893.97;4516735;31;20121;-71
2023/01/20 00:18:41;;;;;;;17.58;8.85;;;;;;;0.47;100.00;97893.75;4516775;31;20118;-71
2023/01/20 00:21:11;;;;;;;13.52;6.20;;;;;;;0.46;100.00;97894.66;4517677;31;20109;-71
2023/01/20 00:23:39;;;;;;;15.45;7.72;;;;;;;0.40;100.00;97899.38;4532900;31;20092;-71
2023/01/20 00:26:12;;;;;;;16.23;7.57;;;;;;;0.39;100.00;97892.56;4532458;31;20103;-71
2023/01/20 00:28:39;;;;;;;14.93;7.70;;;;;;;0.21;100.00;97891.94;4532765;31;20389;-71
2023/01/20 00:31:27;;;;;;;12.90;6.80;;;;;;;0.05;100.00;97890.28;4532565;31;20377;-71
2023/01/20 00:33:56;;;;;;;16.67;7.28;;;;;;;0.12;100.00;97885.59;4532759;31;20092;-71
2023/01/20 00:36:24;;;;;;;14.65;6.60;;;;;;;0.14;100.00;97894.06;4532754;31;20126;-71
2023/01/20 00:38:51;;;;;;;15.98;7.93;;;;;;;0.03;100.00;97897.28;4532775;31;20495;-71
2023/01/20 00:41:18;;;;;;;13.50;6.00;;;;;;;0.03;100.00;97922.19;4532368;31;20109;-71
2023/01/20 00:43:46;;;;;;;14.15;7.35;;;;;;;0.02;100.00;97939.41;4532895;31;20424;-71
2023/01/20 00:46:14;;;;;;;16.10;7.30;;;;;;;0.04;100.00;97950.44;4532380;31;20092;-71
2023/01/20 00:48:41;;;;;;;18.15;8.35;;;;;;;0.05;100.00;97946.13;4532465;31;20161;-71
2023/01/20 00:51:09;;;;;;;14.82;7.12;;;;;;;0.05;100.00;97946.13;4532474;31;20108;-71
2023/01/20 00:53:36;;;;;;;16.23;7.60;;;;;;;0.06;100.00;97945.19;4532388;31;20163;-71
2023/01/20 00:56:04;;;;;;;14.70;6.45;;;;;;;0.09;100.00;97940.69;4532409;31;20857;-71
2023/01/20 00:58:31;;;;;;;17.73;8.07;;;;;;;-0.01;100.00;97939.59;4532291;31;20150;-71
2023/01/20 01:00:59;;;;;;;17.98;8.30;;;;;;;0.03;100.00;97938.50;4532232;31;20109;-71
2023/01/20 01:03:27;;;;;;;17.02;8.25;;;;;;;-0.06;100.00;97931.28;4532251;31;20088;-71
2023/01/20 01:06:08;;;;;;;17.33;8.00;;;;;;;-0.01;100.00;97917.22;4532582;31;20118;-71
2023/01/20 01:08:35;;;;;;;15.70;7.62;;;;;;;-0.06;100.00;97914.13;4532181;31;20131;-71
2023/01/20 01:11:04;;;;;;;17.52;8.35;;;;;;;-0.06;100.00;97908.12;4532243;31;20098;-71
2023/01/20 01:13:31;;;;;;;15.05;7.87;;;;;;;-0.11;100.00;97903.25;4532322;31;20456;-71
2023/01/20 01:15:58;;;;;;;19.35;8.73;;;;;;;-0.12;100.00;97903.34;4532105;31;20100;-71
2023/01/20 01:18:25;;;;;;;15.63;7.72;;;;;;;-0.05;100.00;97905.44;4531916;31;20461;-71
2023/01/20 01:20:53;;;;;;;16.85;9.15;;;;;;;-0.11;100.00;97902.44;4532036;31;20436;-71
2023/01/20 01:23:20;;;;;;;17.73;8.43;;;;;;;-0.23;100.00;97894.53;4531836;31;20519;-71
2023/01/20 01:25:47;;;;;;;18.70;9.10;;;;;;;-0.28;100.00;97883.66;4533520;31;20095;-71
2023/01/20 01:28:14;;;;;;;21.23;9.77;;;;;;;-0.20;100.00;97884.06;4533989;31;20087;-71
2023/01/20 01:30:42;;;;;;;17.17;7.57;;;;;;;-0.25;100.00;97885.25;4533949;31;20703;-71
2023/01/20 01:33:10;;;;;;;24.45;12.20;;;;;;;-0.24;100.00;97874.84;4533893;31;20164;-71
2023/01/20 01:35:37;;;;;;;30.15;13.40;;;;;;;-0.25;100.00;97878.34;4534086;31;20503;-70
2023/01/20 01:38:04;;;;;;;23.25;11.70;;;;;;;-0.31;100.00;97872.75;4533682;31;20106;-70
2023/01/20 01:40:33;;;;;;;22.75;10.55;;;;;;;-0.39;100.00;97865.47;4533905;31;20143;-71
2023/01/20 01:43:00;;;;;;;19.92;10.13;;;;;;;-0.31;100.00;97870.97;4533915;31;20113;-70
2023/01/20 01:45:31;;;;;;;17.62;9.32;;;;;;;-0.34;100.00;97868.59;4533958;31;20107;-71
2023/01/20 01:48:04;;;;;;;17.70;7.95;;;;;;;-0.33;100.00;97865.13;4533956;31;20107;-71
2023/01/20 01:50:44;;;;;;;16.83;7.75;;;;;;;-0.41;100.00;97868.13;4532926;31;20143;-71
2023/01/20 01:53:13;;;;;;;24.20;9.40;;;;;;;-0.30;100.00;97852.06;4532774;31;20130;-71
2023/01/20 01:55:43;;;;;;;18.95;8.13;;;;;;;-0.39;100.00;97855.19;4532577;31;20612;-71
2023/01/20 01:58:13;;;;;;;16.75;8.13;;;;;;;-0.30;100.00;97858.94;4532455;31;20154;-71
2023/01/20 02:00:41;;;;;;;19.37;8.27;;;;;;;-0.32;100.00;97853.88;4532441;31;20087;-71
2023/01/20 02:03:09;;;;;;;19.15;9.13;;;;;;;-0.35;100.00;97846.34;4533663;31;20107;-71
2023/01/20 02:05:38;;;;;;;16.40;8.65;;;;;;;-0.28;100.00;97834.78;4532708;31;20183;-71
2023/01/20 02:08:06;;;;;;;21.85;9.38;;;;;;;-0.33;100.00;97839.38;4532236;31;20106;-71
2023/01/20 02:10:33;;;;;;;22.83;8.48;;;;;;;-0.35;100.00;97843.78;4533676;31;20096;-70
2023/01/20 02:13:01;;;;;;;21.58;9.60;;;;;;;-0.39;100.00;97838.00;4533577;31;20139;-71
2023/01/20 02:15:41;;;;;;;15.40;7.45;;;;;;;-0.48;100.00;97830.81;4533763;31;20113;-71
2023/01/20 02:18:30;;;;;;;21.45;9.93;;;;;;;-0.39;100.00;97832.03;4519093;31;20113;-71
2023/01/20 02:21:26;;;;;;;18.90;9.00;;;;;;;-0.40;100.00;97832.94;4519165;31;20118;-71
2023/01/20 02:23:57;;;;;;;20.30;9.32;;;;;;;-0.44;100.00;97834.03;4503535;31;20561;-70
2023/01/20 02:26:32;;;;;;;22.65;10.02;;;;;;;-0.46;100.00;97841.03;4517447;31;20468;-71
2023/01/20 02:29:11;;;;;;;18.92;8.93;;;;;;;-0.49;100.00;97843.78;4503101;31;20134;-71
2023/01/20 02:32:13;;;;;;;23.12;10.57;;;;;;;-0.43;100.00;97844.22;4517459;31;20124;-71
2023/01/20 02:35:07;;;;;;;16.33;7.72;;;;;;;-0.41;100.00;97849.28;4517264;31;20126;-71
2023/01/20 02:37:40;;;;;;;23.80;9.45;;;;;;;-0.53;100.00;97845.69;4502307;31;20120;-71
2023/01/20 02:40:08;;;;;;;21.55;9.45;;;;;;;-0.41;100.00;97852.69;4517492;31;20129;-71
2023/01/20 02:42:52;;;;;;;25.37;9.40;;;;;;;-0.46;100.00;97843.59;4517656;31;20711;-71
2023/01/20 02:45:28;;;;;;;20.80;8.93;;;;;;;-0.57;100.00;97839.91;4517480;31;20079;-71
2023/01/20 02:48:21;;;;;;;23.00;9.98;;;;;;;-0.50;100.00;97840.38;4502876;31;20119;-71
2023/01/20 02:51:00;;;;;;;21.42;9.18;;;;;;;-0.52;100.00;97842.19;4503139;31;20084;-71
2023/01/20 02:53:32;;;;;;;23.50;9.93;;;;;;;-0.54;100.00;97847.44;4517360;31;20083;-70
2023/01/20 02:56:00;;;;;;;24.67;10.95;;;;;;;-0.52;100.00;97838.81;4517638;31;20183;-71
2023/01/20 02:58:45;;;;;;;22.15;10.68;;;;;;;-0.53;100.00;97843.13;4517488;31;20080;-71
2023/01/20 03:01:22;;;;;;;24.20;10.75;;;;;;;-0.45;100.00;97851.22;4517324;31;20080;-71
2023/01/20 03:03:52;;;;;;;21.52;9.40;;;;;;;-0.58;100.00;97843.37;4502911;31;20102;-71
2023/01/20 03:06:23;;;;;;;19.77;9.02;;;;;;;-0.46;100.00;97839.25;4517272;31;20160;-71
2023/01/20 03:08:54;;;;;;;22.67;10.13;;;;;;;-0.40;100.00;97843.22;4515959;31;20122;-71
2023/01/20 03:11:21;;;;;;;19.33;8.32;;;;;;;-0.32;100.00;97851.31;4517343;31;20130;-71
2023/01/20 03:13:54;;;;;;;22.67;10.63;;;;;;;-0.34;100.00;97853.16;4517088;31;20130;-71
2023/01/20 03:16:23;;;;;;;22.15;10.02;;;;;;;-0.34;100.00;97853.16;4502871;31;20118;-71
2023/01/20 03:18:50;;;;;;;20.85;10.07;;;;;;;-0.27;100.00;97851.87;4515785;31;20155;-71
2023/01/20 03:21:18;;;;;;;20.77;9.35;;;;;;;-0.22;100.00;97867.84;4519238;31;20502;-71
2023/01/20 03:23:47;;;;;;;24.52;10.15;;;;;;;-0.26;100.00;97860.41;4531806;31;20099;-71
2023/01/20 03:26:16;;;;;;;21.85;9.95;;;;;;;-0.05;100.00;97866.03;4531773;31;20108;-71
2023/01/20 03:28:45;;;;;;;19.60;9.32;;;;;;;-0.06;100.00;97861.78;4531832;31;20851;-71
2023/01/20 03:31:38;;;;;;;20.00;8.80;;;;;;;0.08;100.00;97868.69;4532032;31;20452;-71
2023/01/20 03:34:11;;;;;;;25.83;9.48;;;;;;;0.21;100.00;97884.22;4533037;31;20097;-71
2023/01/20 03:36:40;;;;;;;20.80;9.85;;;;;;;0.33;100.00;97884.28;4533315;31;20794;-71
2023/01/20 03:39:08;;;;;;;18.85;8.45;;;;;;;0.43;100.00;97871.66;4518400;31;20171;-71
2023/01/20 03:41:47;;;;;;;18.92;9.13;;;;;;;0.40;100.00;97871.84;4532946;31;20107;-71
2023/01/20 03:44:51;;;;;;;17.80;7.50;;;;;;;0.37;100.00;97877.19;4533043;31;20485;-71
2023/01/20 03:47:49;;;;;;;15.80;8.00;;;;;;;0.45;100.00;97869.78;4533291;31;20083;-71
2023/01/20 03:50:34;;;;;;;20.17;8.40;;;;;;;0.38;100.00;97871.12;4533148;31;20110;-71
2023/01/20 03:53:30;;;;;;;15.60;7.97;;;;;;;0.32;100.00;97874.91;4518720;31;20114;-71
2023/01/20 03:56:10;;;;;;;20.60;8.88;;;;;;;0.45;100.00;97877.53;4530640;31;20159;-71
2023/01/20 03:58:40;;;;;;;18.77;8.45;;;;;;;0.55;100.00;97876.97;4518633;31;20095;-71
2023/01/20 04:01:09;;;;;;;17.92;7.95;;;;;;;0.47;100.00;97870.53;4518464;31;20122;-71
2023/01/20 04:03:46;;;;;;;16.33;8.75;;;;;;;0.52;100.00;97863.34;4532919;31;20092;-71
2023/01/20 04:06:14;;;;;;;18.70;8.57;;;;;;;0.55;100.00;97872.63;4518311;31;20110;-71
2023/01/20 04:08:51;;;;;;;15.05;7.68;;;;;;;0.38;100.00;97878.84;4518490;31;20155;-71
2023/01/20 04:11:18;;;;;;;16.23;8.23;;;;;;;0.55;100.00;97876.97;4516807;31;20531;-71
2023/01/20 04:13:45;;;;;;;15.20;7.28;;;;;;;0.63;100.00;97877.31;4502397;31;20092;-71
2023/01/20 04:16:15;;;;;;;16.62;8.18;;;;;;;0.72;100.00;97881.87;4502387;31;20096;-71
2023/01/20 04:18:45;;;;;;;16.33;7.32;;;;;;;0.58;100.00;97871.62;4502424;31;20261;-71
2023/01/20 04:21:29;;;;;;;13.95;7.28;;;;;;;0.59;100.00;97868.94;4518144;31;20092;-71
2023/01/20 04:23:59;;;;;;;15.30;8.00;;;;;;;0.63;100.00;97875.56;4531546;31;20151;-71
2023/01/20 04:26:26;;;;;;;19.85;8.50;;;;;;;0.76;100.00;97895.38;4532807;31;20147;-71
2023/01/20 04:28:53;;;;;;;19.92;8.60;;;;;;;0.76;100.00;97900.53;4532519;31;20158;-71
2023/01/20 04:31:21;;;;;;;18.40;7.95;;;;;;;0.64;100.00;97894.44;4532772;31;20091;-71
2023/01/20 04:33:57;;;;;;;18.80;8.95;;;;;;;0.68;100.00;97901.03;4532526;31;20110;-71
2023/01/20 04:36:24;;;;;;;20.17;8.45;;;;;;;0.76;100.00;97890.22;4532583;31;20092;-71
2023/01/20 04:38:51;;;;;;;18.90;9.63;;;;;;;0.74;100.00;97892.09;4532457;31;20087;-71
2023/01/20 04:41:19;;;;;;;22.20;9.35;;;;;;;0.66;100.00;97892.59;4532606;31;20104;-71
2023/01/20 04:43:46;;;;;;;21.08;10.27;;;;;;;0.61;100.00;97895.44;4532911;31;20143;-71
2023/01/20 04:46:14;;;;;;;19.08;8.63;;;;;;;0.53;100.00;97898.50;4532416;31;20087;-71
2023/01/20 04:48:43;;;;;;;23.33;9.93;;;;;;;0.59;100.00;97897.31;4532506;31;20117;-71
2023/01/20 04:51:11;;;;;;;20.77;9.48;;;;;;;0.49;100.00;97885.91;4532610;31;20087;-71
2023/01/20 04:53:38;;;;;;;18.85;9.02;;;;;;;0.40;100.00;97871.03;4532417;31;20088;-71
2023/01/20 04:56:13;;;;;;;18.23;9.43;;;;;;;0.40;100.00;97869.28;4532448;31;20105;-71
2023/01/20 04:58:41;;;;;;;21.92;9.40;;;;;;;0.30;100.00;97856.16;4532158;31;20110;-71
2023/01/20 05:01:08;;;;;;;19.23;9.38;;;;;;;0.11;100.00;97847.91;4532025;31;20158;-71
2023/01/20 05:03:36;;;;;;;18.27;8.88;;;;;;;0.12;100.00;97840.09;4532018;31;20167;-71
2023/01/20 05:06:05;;;;;;;18.33;9.38;;;;;;;0.16;100.00;97831.22;4531935;31;20083;-71
2023/01/20 05:08:32;;;;;;;17.75;8.63;;;;;;;0.21;100.00;97832.69;4522932;31;20115;-71
2023/01/20 05:10:59;;;;;;;19.98;8.85;;;;;;;0.17;100.00;97830.31;4529745;31;20138;-71
2023/01/20 05:13:27;;;;;;;20.10;9.05;;;;;;;0.20;100.00;97836.19;4532015;31;20190;-72
2023/01/20 05:15:54;;;;;;;19.58;8.70;;;;;;;0.14;100.00;97838.22;4531781;31;20144;-71
2023/01/20 05:18:21;;;;;;;19.98;8.70;;;;;;;0.12;100.00;97832.34;4517319;31;20107;-71
2023/01/20 05:20:49;;;;;;;14.75;7.78;;;;;;;0.14;100.00;97827.94;4531797;31;20087;-71
2023/01/20 05:23:16;;;;;;;21.50;9.23;;;;;;;0.14;100.00;97822.78;4532009;31;20095;-71
2023/01/20 05:25:51;;;;;;;17.37;8.88;;;;;;;0.17;100.00;97834.63;4531669;31;20139;-71
2023/01/20 05:28:19;;;;;;;17.85;8.80;;;;;;;0.26;100.00;97835.78;4531945;31;20095;-71
2023/01/20 05:30:47;;;;;;;22.73;8.85;;;;;;;0.24;100.00;97837.66;4531423;31;20164;-71
2023/01/20 05:33:15;;;;;;;22.55;9.50;;;;;;;0.10;100.00;97829.03;4530424;31;20198;-71
2023/01/20 05:35:42;;;;;;;18.12;7.53;;;;;;;0.20;100.00;97831.03;4531641;31;20103;-71
2023/01/20 05:38:10;;;;;;;22.55;9.80;;;;;;;0.20;100.00;97839.59;4531666;31;20087;-71
2023/01/20 05:40:37;;;;;;;18.87;8.32;;;;;;;0.32;100.00;97838.84;4531530;31;20118;-72
2023/01/20 05:43:04;;;;;;;20.73;9.73;;;;;;;0.31;100.00;97844.09;4531501;31;20139;-71
2023/01/20 05:45:32;;;;;;;19.75;8.48;;;;;;;0.29;100.00;97857.06;4531063;31;20095;-71
2023/01/20 05:47:59;;;;;;;23.55;9.02;;;;;;;0.26;100.00;97851.25;4531531;31;20091;-71
2023/01/20 05:50:28;;;;;;;25.23;10.02;;;;;;;0.30;100.00;97847.56;4531286;31;20468;-71
2023/01/20 05:52:55;;;;;;;22.05;10.15;;;;;;;0.30;100.00;97847.56;4520715;31;20154;-72
2023/01/20 05:55:22;;;;;;;19.58;9.48;;;;;;;0.31;100.00;97855.19;4527981;31;20091;-71
2023/01/20 05:57:50;;;;;;;18.80;9.75;;;;;;;0.43;100.00;97853.63;4527409;31;20158;-72
2023/01/20 06:00:17;;;;;;;20.00;9.73;;;;;;;0.43;100.00;97856.19;4500132;31;20087;-71
2023/01/20 06:02:45;;;;;;;20.88;9.30;;;;;;;0.42;100.00;97857.09;4520214;31;20113;-71
2023/01/20 06:05:12;;;;;;;21.37;9.68;;;;;;;0.46;100.00;97853.44;4514225;31;20164;-71
2023/01/20 06:07:40;;;;;;;19.70;8.68;;;;;;;0.41;100.00;97850.31;4518538;31;20129;-71
2023/01/20 06:10:08;;;;;;;23.17;8.90;;;;;;;0.37;100.00;97848.03;4521226;31;20426;-71
2023/01/20 06:12:35;;;;;;;23.40;10.40;;;;;;;0.49;100.00;97850.66;4518681;31;20107;-72
2023/01/20 06:15:03;;;;;;;23.20;10.63;;;;;;;0.48;100.00;97845.59;4517709;31;20104;-71
2023/01/20 06:17:30;;;;;;;23.55;10.07;;;;;;;0.48;100.00;97849.00;4528613;31;20095;-71
2023/01/20 06:19:59;;;;;;;22.48;9.93;;;;;;;0.52;100.00;97847.88;4508556;31;20115;-71
2023/01/20 06:22:27;;;;;;;26.67;10.02;;;;;;;0.43;100.00;97848.47;4523544;31;20091;-71
2023/01/20 06:24:54;;;;;;;22.25;10.70;;;;;;;0.40;100.00;97855.56;4515875;31;20100;-71
2023/01/20 06:27:22;;;;;;;23.92;10.20;;;;;;;0.45;100.00;97850.94;4526539;31;20115;-72
2023/01/20 06:29:49;;;;;;;24.00;10.55;;;;;;;0.43;100.00;97857.94;4519787;31;20100;-71
2023/01/20 06:32:17;;;;;;;23.00;10.50;;;;;;;0.35;100.00;97855.84;4528072;31;21147;-72
2023/01/20 06:34:44;;;;;;;23.70;10.60;;;;;;;0.21;100.00;97856.69;4530104;31;20095;-71
2023/01/20 06:37:12;;;;;;;25.88;10.30;;;;;;;0.38;100.00;97853.09;4532823;31;20440;-71
2023/01/20 06:39:40;;;;;;;27.23;11.05;;;;;;;0.25;100.00;97852.19;4528344;31;20107;-70
2023/01/20 06:42:07;;;;;;;22.45;10.52;;;;;;;0.35;100.00;97848.94;4518393;31;20087;-71
2023/01/20 06:44:37;;;;;;;28.62;11.48;;;;;;;0.34;100.00;97844.72;4520508;31;20145;-71
2023/01/20 06:47:04;;;;;;;20.55;10.05;;;;;;;0.27;100.00;97860.63;4525497;31;20107;-70
2023/01/20 06:49:32;;;;;;;23.12;10.40;;;;;;;0.25;100.00;97865.06;4529382;31;20523;-71
2023/01/20 06:51:59;;;;;;;24.63;10.75;;;;;;;0.30;100.00;97868.19;4523608;31;21491;-72
2023/01/20 06:54:27;;;;;;;25.50;10.73;;;;;;;0.34;100.00;97861.94;4514792;31;20523;-72
2023/01/20 06:56:55;;;;;;;22.45;9.68;;;;;;;0.40;100.00;97871.03;4519935;31;20095;-73
2023/01/20 06:59:22;;;;;;;28.12;11.90;;;;;;;0.41;100.00;97862.34;4529771;31;20112;-75
2023/01/20 07:01:51;;;;;;;22.50;10.05;;;;;;;0.37;100.00;97874.63;4523557;31;20104;-72
2023/01/20 07:04:19;;;;;;;28.02;11.85;;;;;;;0.32;100.00;97868.94;4518061;31;20124;-71
2023/01/20 07:06:47;;;;;;;25.83;11.00;;;;;;;0.38;100.00;97881.44;4521201;31;20088;-71
2023/01/20 07:09:14;;;;;;;30.15;10.38;;;;;;;0.47;100.00;97877.44;4509913;31;20123;-72
2023/01/20 07:11:41;;;;;;;22.48;9.73;;;;;;;0.62;100.00;97886.81;4520461;31;20103;-71
2023/01/20 07:14:09;;;;;;;25.95;10.52;;;;;;;0.64;100.00;97897.84;4509490;31;20112;-73
2023/01/20 07:16:37;;;;;;;24.87;10.57;;;;;;;0.59;100.00;97888.72;4516910;31;20782;-72
2023/01/20 07:19:05;;;;;;;23.42;10.80;;;;;;;0.51;100.00;97886.62;4518327;31;20126;-72
2023/01/20 07:21:33;;;;;;;19.40;9.75;;;;;;;0.58;100.00;97893.06;4520675;31;20842;-73
2023/01/20 07:24:01;;;;;;;21.10;9.93;;;;;;;0.57;100.00;97890.59;4520876;31;20171;-73
2023/01/20 07:26:29;;;;;;;25.42;10.95;;;;;;;0.64;100.00;97897.84;4516289;31;20103;-72
2023/01/20 07:28:57;;;;;;;26.62;10.35;;;;;;;0.59;100.00;97899.03;4515843;31;20091;-72
2023/01/20 07:31:26;;;;;;;21.60;10.18;;;;;;;0.65;100.00;97901.22;4518124;31;20142;-71
2023/01/20 07:33:55;;;;;;;22.92;10.02;;;;;;;0.61;100.00;97902.38;4519842;31;20392;-71
2023/01/20 07:36:22;;;;;;;19.83;8.60;;;;;;;0.68;100.00;97893.28;4524311;31;20091;-72
2023/01/20 07:38:52;;;;;;;21.75;9.98;;;;;;;0.69;100.00;97900.13;4519645;31;20148;-72
2023/01/20 07:41:19;;;;;;;23.20;10.98;;;;;;;0.69;100.00;97887.22;4516727;31;20171;-72
2023/01/20 07:43:49;;;;;;;28.23;12.30;;;;;;;0.68;100.00;97893.28;4522690;31;20091;-72
2023/01/20 07:46:16;;;;;;;23.80;10.65;;;;;;;0.70;100.00;97899.19;4526641;31;20218;-73
2023/01/20 07:48:44;;;;;;;23.62;10.55;;;;;;;0.79;100.00;97895.19;4526341;31;20134;-73
2023/01/20 07:51:13;;;;;;;24.27;11.18;;;;;;;0.70;100.00;97901.78;4531486;31;20091;-72
2023/01/20 07:53:46;;;;;;;27.67;11.95;;;;;;;0.53;100.00;97901.09;4528265;31;20103;-75
2023/01/20 07:56:19;;;;;;;33.17;12.20;;;;;;;0.47;100.00;97906.63;4528396;31;20133;-72
2023/01/20 07:58:49;;;;;;;22.60;11.63;;;;;;;0.55;100.00;97907.91;4522336;31;20100;-74
2023/01/20 08:01:16;;;;;;;27.23;10.75;;;;;;;0.54;100.00;97907.06;4518668;31;20225;-73
2023/01/20 08:03:44;;;;;;;27.05;12.15;;;;;;;0.54;100.00;97907.06;4521147;31;20120;-73
2023/01/20 08:06:14;;;;;;;30.60;12.63;;;;;;;0.42;100.00;97916.38;4524034;31;20174;-72
2023/01/20 08:08:42;;;;;;;27.90;11.68;;;;;;;0.48;100.00;97917.75;4517615;31;20483;-72
2023/01/20 08:11:11;;;;;;;22.30;10.82;;;;;;;0.60;100.00;97916.97;4523448;31;20138;-73
2023/01/20 08:13:39;;;;;;;26.52;12.68;;;;;;;0.50;100.00;97927.03;4528443;31;20470;-73
2023/01/20 08:16:09;;;;;;;34.10;13.23;;;;;;;0.38;100.00;97934.69;4524634;31;20122;-73
2023/01/20 08:18:37;;;;;;;25.15;10.95;;;;;;;0.47;100.00;97937.53;4512630;31;20122;-74
2023/01/20 08:21:07;;;;;;;28.25;11.73;;;;;;;0.51;100.00;97933.84;4518523;31;20143;-75
2023/01/20 08:23:35;;;;;;;27.65;11.80;;;;;;;0.55;100.00;97936.25;4519941;31;20076;-72
2023/01/20 08:26:04;;;;;;;27.20;11.63;;;;;;;0.63;100.00;97941.75;4516282;31;20126;-73
2023/01/20 08:28:33;;;;;;;19.52;9.00;;;;;;;0.56;100.00;97940.47;4525732;31;20121;-73
2023/01/20 08:31:08;;;;;;;26.30;11.23;;;;;;;0.61;100.00;97931.53;4520586;31;20115;-72
2023/01/20 08:33:36;;;;;;;26.30;11.07;;;;;;;0.61;100.00;97934.09;4518221;31;20147;-73
2023/01/20 08:36:06;;;;;;;22.58;10.82;;;;;;;0.62;100.00;97940.09;4523654;31;20126;-74
2023/01/20 08:38:35;;;;;;;20.08;9.07;;;;;;;0.65;100.00;97939.88;4514420;31;20103;-74
2023/01/20 08:41:06;;;;;;;27.33;11.07;;;;;;;0.64;100.00;97946.00;4522047;31;20156;-74
2023/01/20 08:43:34;;;;;;;24.58;11.52;;;;;;;0.69;100.00;97941.38;4519709;31;20138;-73
2023/01/20 08:46:04;;;;;;;26.10;10.90;;;;;;;0.78;100.00;97945.94;4528274;31;20088;-72
2023/01/20 08:48:32;;;;;;;21.45;9.43;;;;;;;0.79;100.00;97946.75;4506533;31;20111;-72
2023/01/20 08:51:03;;;;;;;28.60;10.63;;;;;;;0.90;100.00;97948.69;4523826;31;96346;-74
2023/01/20 08:53:31;;;;;;;19.83;8.98;;;;;;;0.86;100.00;97948.88;4518471;31;20126;-73
2023/01/20 08:56:00;;;;;;;21.92;10.13;;;;;;;0.98;100.00;97947.25;4523041;31;20167;-73
2023/01/20 08:58:28;;;;;;;22.92;10.07;;;;;;;1.02;100.00;97948.72;4524730;31;20121;-72
2023/01/20 09:00:55;;;;;;;21.92;9.85;;;;;;;0.98;100.00;97956.75;4520206;31;20091;-73
2023/01/20 09:03:23;;;;;;;24.05;9.65;;;;;;;1.00;100.00;97960.06;4513041;31;20108;-73
2023/01/20 09:05:50;;;;;;;25.00;10.77;;;;;;;0.93;100.00;97956.22;4517797;31;20119;-71
2023/01/20 09:08:18;;;;;;;20.35;9.48;;;;;;;1.03;100.00;97965.00;4513410;31;20124;-72
2023/01/20 09:10:45;;;;;;;24.52;11.12;;;;;;;1.03;100.00;97954.69;4521149;31;20103;-71
2023/01/20 09:13:15;;;;;;;23.08;10.50;;;;;;;0.93;100.00;97954.47;4520556;31;20147;-71
2023/01/20 09:15:42;;;;;;;24.80;10.38;;;;;;;0.90;100.00;97953.84;4518947;31;20433;-72
2023/01/20 09:18:09;;;;;;;25.45;10.82;;;;;;;0.83;100.00;97943.91;4529400;31;20106;-72
2023/01/20 09:20:37;;;;;;;22.10;9.65;;;;;;;0.95;100.00;97947.44;4527320;31;20491;-72
2023/01/20 09:23:04;;;;;;;27.50;10.80;;;;;;;0.97;100.00;97942.19;4524831;31;20095;-72
2023/01/20 09:25:31;;;;;;;27.23;11.77;;;;;;;0.97;100.00;97942.19;4519153;31;20451;-72
2023/01/20 09:28:00;;;;;;;28.65;13.32;;;;;;;0.81;100.00;97925.12;4517562;31;20086;-73
2023/01/20 09:30:27;;;;;;;23.55;11.50;;;;;;;0.91;100.00;97929.69;4520576;31;20476;-72
2023/01/20 09:32:56;;;;;;;28.20;10.77;;;;;;;0.80;100.00;97922.63;4517828;31;20460;-71
2023/01/20 09:35:24;;;;;;;24.17;10.85;;;;;;;0.86;100.00;97917.09;4517291;31;20434;-71
2023/01/20 09:43:52;;;;;;;28.40;10.63;;;;;;;1.06;100.00;97918.44;4516288;31;20129;-74
2023/01/20 09:46:30;;;;;;;25.85;9.88;;;;;;;1.13;100.00;97911.09;4505642;31;20101;-74
2023/01/20 09:55:14;;;;;;;24.95;10.35;;;;;;;1.22;100.00;97910.50;4507043;31;20088;-74
2023/01/20 09:57:43;;;;;;;23.20;9.77;;;;;;;1.15;100.00;97906.66;4525964;31;20130;-74
2023/01/20 10:00:20;;;;;;;25.77;10.70;;;;;;;1.15;100.00;97897.19;4519221;31;20091;-73
2023/01/20 10:02:51;;;;;;;27.37;11.30;;;;;;;1.26;100.00;97893.06;4505240;31;20207;-73
2023/01/20 10:05:23;;;;;;;23.65;10.07;;;;;;;1.24;100.00;97888.84;4506577;31;20099;-72
2023/01/20 10:07:55;;;;;;;23.75;10.75;;;;;;;1.19;100.00;97877.16;4502425;31;20091;-71
2023/01/20 10:10:30;;;;;;;24.55;10.73;;;;;;;1.29;100.00;97869.63;4520140;31;20155;-72
2023/01/20 10:13:06;;;;;;;23.52;10.70;;;;;;;1.37;100.00;97867.41;4515697;31;20115;-72
2023/01/20 10:15:37;;;;;;;23.58;11.02;;;;;;;1.28;100.00;97857.69;4511211;31;20087;-71
2023/01/20 10:18:13;;;;;;;22.25;10.77;;;;;;;1.41;100.00;97843.03;4504466;31;20122;-72
2023/01/20 10:20:46;;;;;;;24.23;9.43;;;;;;;1.61;100.00;97840.88;4500780;31;20091;-72
2023/01/20 10:23:20;;;;;;;20.05;8.88;;;;;;;1.56;100.00;97838.59;4506819;31;20150;-72
2023/01/20 10:26:15;;;;;;;21.20;9.52;;;;;;;1.68;100.00;97826.59;4507968;31;20124;-72
2023/01/20 10:28:58;;;;;;;20.62;9.25;;;;;;;1.80;100.00;97835.28;4529353;31;20379;-72
2023/01/20 10:31:28;;;;;;;18.12;7.62;;;;;;;1.90;100.00;97839.69;4527265;31;20083;-72
2023/01/20 10:33:58;;;;;;;22.08;9.30;;;;;;;1.82;100.00;97842.00;4524758;31;20099;-72
2023/01/20 10:36:30;;;;;;;24.45;10.13;;;;;;;1.74;100.00;97836.50;4516175;31;20852;-72
2023/01/20 10:39:11;;;;;;;18.45;9.07;;;;;;;1.90;100.00;97837.13;4519202;31;20154;-72
2023/01/20 10:41:47;;;;;;;21.12;9.57;;;;;;;1.99;100.00;97835.66;4526093;31;20135;-72
2023/01/20 10:44:15;;;;;;;28.08;10.75;;;;;;;1.86;100.00;97834.84;4525155;31;21452;-72
2023/01/20 10:47:07;;;;;;;26.05;9.55;;;;;;;1.88;100.00;97849.31;4513834;31;20451;-72
2023/01/20 10:49:40;;;;;;;30.08;11.35;;;;;;;1.90;100.00;97842.28;4511587;31;20142;-73
2023/01/20 10:52:30;;;;;;;33.45;13.85;;;;;;;1.94;100.00;97846.31;4518716;31;20150;-72
2023/01/20 10:55:13;;;;;;;20.25;8.90;;;;;;;1.92;100.00;97848.19;4518246;31;20133;-71
2023/01/20 10:57:41;;;;;;;37.15;15.15;;;;;;;1.98;100.00;97862.41;4518441;31;20410;-72
2023/01/20 11:00:29;;;;;;;26.15;11.25;;;;;;;1.92;100.00;97850.78;4519141;31;20124;-73
2023/01/20 11:02:58;;;;;;;27.92;11.32;;;;;;;1.98;100.00;97854.66;4525470;31;20099;-74
2023/01/20 11:05:29;;;;;;;29.98;12.48;;;;;;;1.95;100.00;97850.56;4520715;31;20128;-74
2023/01/20 11:07:59;;;;;;;21.33;9.55;;;;;;;2.08;100.00;97855.69;4516116;31;20162;-73
2023/01/20 11:10:28;;;;;;;18.52;9.05;;;;;;;2.06;100.00;97852.41;4502320;31;20100;-73
2023/01/20 11:12:58;;;;;;;23.70;11.38;;;;;;;1.98;100.00;97862.41;4505852;31;20559;-73
2023/01/20 11:15:28;;;;;;;24.23;11.00;;;;;;;1.86;100.00;97851.19;4502258;31;20155;-74
2023/01/20 11:18:14;;;;;;;20.35;9.90;;;;;;;1.82;100.00;97849.75;4502378;31;20496;-73
2023/01/20 11:20:56;;;;;;;27.75;12.48;;;;;;;1.78;100.00;97841.38;4528248;31;20130;-72
2023/01/20 11:23:31;;;;;;;21.92;10.23;;;;;;;1.79;100.00;97837.03;4519004;31;20150;-74
2023/01/20 11:26:00;;;;;;;23.55;8.63;;;;;;;1.80;100.00;97825.75;4519283;31;20103;-73
2023/01/20 11:28:35;;;;;;;21.12;7.87;;;;;;;1.83;100.00;97825.56;4525852;31;20162;-74
2023/01/20 11:31:03;;;;;;;20.50;9.45;;;;;;;1.97;100.00;97816.03;4511635;31;20103;-73
2023/01/20 11:33:31;;;;;;;17.55;8.48;;;;;;;2.04;100.00;97814.69;4519517;31;20096;-72
2023/01/20 11:36:02;;;;;;;22.23;9.32;;;;;;;2.15;100.00;97814.78;4518627;31;20110;-74
2023/01/20 11:38:41;;;;;;;15.98;6.60;;;;;;;2.27;100.00;97808.72;4520094;31;20092;-74
2023/01/20 11:41:40;;;;;;;15.20;6.75;;;;;;;2.39;100.00;97788.94;4518170;31;20096;-73
2023/01/20 11:44:07;;;;;;;12.82;5.47;;;;;;;2.37;100.00;97787.41;4441315;32;20156;-73
2023/01/20 11:46:36;;;;;;;13.57;6.97;;;;;;;2.35;100.00;97781.50;4441821;32;20340;-73
2023/01/20 11:49:19;;;;;;;15.77;5.05;;;;;;;2.33;100.00;97794.53;4430964;32;20131;-73